Aeroporto :
LOGIN :

Iscrizione | Disclaimer

   EN    FR    IT 

 










Sommario :    VFR   VFR Marginale   IFR   IFR Intensivo   IFR Molto Intensivo
Visibilità : 
Base nubi : 
>= 8 km
>= 3000ft
5 / 8 km
1000 / 3000 ft
1500m / 5 km
500 / 1000 ft
800 / 1500m
200 / 500 ft
< 800m
< 200 ft
Simboli :   Temporali  Nebbia  Neve Forte  Precipitazioni Forti  Vento > 20 kt
SIGMETs :   Varie  Temporali  Ghiacco  Turbolenza  Onda orograficha  Ceneri Vulcaniche






- Altitudine del aeroporto : 291 ft
- Codice IATA : ORY


LFPO - Paris-Orly

ULTIMO METAR :
  • 250600Z 01005KT 330V040 CAVOK 20/15 Q1014 NOSIG

METARs OBSOLETI :
  • 250530Z 01006KT 340V070 CAVOK 20/15 Q1014 NOSIG
  • 250500Z AUTO 01006KT 350V050 CAVOK 19/15 Q1014 NOSIG
  • 250430Z AUTO 36004KT 330V030 CAVOK 18/14 Q1014 NOSIG
  • 250400Z AUTO 02005KT CAVOK 18/14 Q1014 NOSIG
  • 250330Z AUTO 01007KT CAVOK 19/14 Q1014 NOSIG
  • 250300Z AUTO 01006KT CAVOK 19/14 Q1014 NOSIG
  • 250230Z AUTO 36006KT CAVOK 19/14 Q1014 NOSIG
  • 250200Z AUTO 01005KT CAVOK 19/14 Q1014 NOSIG
  • 250130Z AUTO 01006KT CAVOK 20/14 Q1014 NOSIG

TAF TAF LFPO
Valido dal 25 a 06 ore il 26 a 12 ore UTC


250500Z 2506/2612 02008KT CAVOK
ATIS : +33 1 49 75 65 80



MetMap, La meteo Aeronautica in un colpo d'occhio ! - Copyright ORBIFLY Dicembre 2007 - Disclaimer

ORBIFLY MET'MAP TEAM :

Programmazione e sviluppo : Alexandra Zaïnal
Concezione : Baudouin d'Aumeries
Supporto tecnico e logistico : Manuel Goepfert
Aiuto : Marc-Olivier Méhu
Aiuto per la traduzione : Arnaldo La Scala




FONTI E CREDITI :

   NOAA